createdAt,value
2023-04-27T00:01:43.393Z,8.20
2023-04-27T00:04:10.370Z,8.20
2023-04-27T00:06:37.277Z,8.10
2023-04-27T00:09:04.556Z,8.10
2023-04-27T00:11:31.829Z,8.10
2023-04-27T00:13:58.726Z,8.20
2023-04-27T00:16:26.276Z,8.10
2023-04-27T00:18:53.162Z,8.00
2023-04-27T00:21:20.016Z,8.00
2023-04-27T00:23:46.813Z,8.00
2023-04-27T00:26:13.658Z,8.00
2023-04-27T00:28:40.460Z,8.00
2023-04-27T00:31:07.261Z,7.90
2023-04-27T00:33:34.105Z,7.90
2023-04-27T00:36:01.701Z,7.90
2023-04-27T00:38:30.043Z,7.90
2023-04-27T00:41:07.564Z,7.90
2023-04-27T00:43:43.619Z,7.90
2023-04-27T00:46:13.789Z,7.90
2023-04-27T00:48:41.630Z,7.80
2023-04-27T00:51:08.742Z,7.80
2023-04-27T00:53:37.569Z,7.80
2023-04-27T00:56:06.727Z,7.70
2023-04-27T00:58:33.638Z,7.70
2023-04-27T01:01:01.127Z,7.70
2023-04-27T01:03:28.105Z,7.70
2023-04-27T01:05:56.770Z,7.60
2023-04-27T01:08:23.701Z,7.60
2023-04-27T01:10:50.722Z,7.60
2023-04-27T01:13:17.752Z,7.60
2023-04-27T01:15:44.589Z,7.50
2023-04-27T01:18:11.464Z,7.50
2023-04-27T01:20:38.643Z,7.50
2023-04-27T01:23:05.841Z,7.50
2023-04-27T01:25:32.686Z,8.30
2023-04-27T01:27:59.639Z,7.50
2023-04-27T01:30:28.541Z,7.50
2023-04-27T01:32:56.389Z,7.50
2023-04-27T01:35:24.747Z,7.50
2023-04-27T01:37:52.671Z,7.50
2023-04-27T01:40:19.590Z,7.50
2023-04-27T01:42:46.391Z,7.50
2023-04-27T01:45:13.306Z,7.40
2023-04-27T01:47:41.028Z,7.50
2023-04-27T01:50:08.342Z,7.40
2023-04-27T01:52:35.217Z,7.40
2023-04-27T01:55:02.040Z,7.40
2023-04-27T01:57:28.882Z,7.40
2023-04-27T01:59:55.731Z,7.40
2023-04-27T02:02:22.762Z,7.40
2023-04-27T02:04:49.693Z,7.30
2023-04-27T02:07:16.647Z,7.40
2023-04-27T02:09:43.454Z,7.30
2023-04-27T02:12:10.526Z,7.30
2023-04-27T02:14:37.402Z,7.30
2023-04-27T02:17:04.232Z,7.30
2023-04-27T02:19:30.980Z,7.30
2023-04-27T02:21:57.764Z,7.30
2023-04-27T02:24:24.645Z,7.30
2023-04-27T02:26:51.477Z,7.30
2023-04-27T02:29:18.514Z,7.30
2023-04-27T02:31:46.348Z,7.30
2023-04-27T02:34:13.264Z,7.40
2023-04-27T02:36:40.156Z,7.40
2023-04-27T02:39:06.893Z,7.40
2023-04-27T02:41:33.726Z,7.40
2023-04-27T02:44:00.636Z,7.40
2023-04-27T02:46:27.544Z,7.50
2023-04-27T02:48:56.006Z,7.50
2023-04-27T02:51:22.818Z,7.50
2023-04-27T02:53:49.752Z,7.50
2023-04-27T02:56:16.667Z,7.50
2023-04-27T02:58:44.840Z,7.50
2023-04-27T03:01:12.132Z,7.50
2023-04-27T03:03:39.125Z,7.60
2023-04-27T03:06:07.122Z,7.60
2023-04-27T03:08:33.914Z,7.60
2023-04-27T03:11:00.718Z,7.60
2023-04-27T03:13:28.245Z,7.60
2023-04-27T03:15:55.048Z,7.60
2023-04-27T03:18:21.909Z,7.60
2023-04-27T03:20:48.758Z,7.60
2023-04-27T03:23:15.639Z,7.60
2023-04-27T03:25:42.410Z,7.60
2023-04-27T03:28:09.261Z,7.60
2023-04-27T03:30:36.064Z,7.60
2023-04-27T03:33:03.398Z,7.50
2023-04-27T03:35:30.349Z,7.60
2023-04-27T03:37:57.116Z,7.60
2023-04-27T03:40:24.018Z,7.60
2023-04-27T03:42:50.927Z,7.60
2023-04-27T03:45:19.189Z,7.60
2023-04-27T03:47:46.072Z,7.60
2023-04-27T03:50:12.884Z,7.60
2023-04-27T03:52:39.694Z,7.60
2023-04-27T03:55:07.173Z,7.60
2023-04-27T03:57:34.021Z,7.60
2023-04-27T04:00:01.184Z,7.50
2023-04-27T04:02:28.066Z,7.50
2023-04-27T04:04:55.132Z,7.50
2023-04-27T04:07:22.000Z,7.50
2023-04-27T04:09:48.791Z,7.50
2023-04-27T04:12:15.663Z,7.50
2023-04-27T04:14:42.896Z,7.50
2023-04-27T04:17:10.948Z,7.40
2023-04-27T04:19:37.903Z,7.50
2023-04-27T04:22:04.973Z,7.50
2023-04-27T04:24:31.856Z,7.50
2023-04-27T04:26:58.811Z,7.50
2023-04-27T04:29:25.768Z,7.50
2023-04-27T04:31:52.799Z,7.40
2023-04-27T04:34:20.036Z,7.50
2023-04-27T04:36:47.241Z,7.50
2023-04-27T04:39:14.944Z,7.50
2023-04-27T04:41:42.058Z,7.50
2023-04-27T04:44:08.827Z,7.50
2023-04-27T04:46:37.701Z,7.50
2023-04-27T04:49:05.120Z,7.50
2023-04-27T04:51:31.963Z,7.50
2023-04-27T04:54:01.087Z,7.60
2023-04-27T04:56:28.575Z,7.60
2023-04-27T04:58:55.549Z,7.60
2023-04-27T05:01:22.408Z,7.70
2023-04-27T05:03:49.331Z,7.70
2023-04-27T05:06:16.391Z,7.70
2023-04-27T05:08:43.355Z,7.70
2023-04-27T05:11:11.349Z,7.70
2023-04-27T05:13:38.928Z,7.70
2023-04-27T05:16:06.736Z,7.80
2023-04-27T05:18:35.898Z,7.80
2023-04-27T05:21:03.235Z,7.80
2023-04-27T05:23:30.032Z,7.80
2023-04-27T05:25:56.893Z,7.80
2023-04-27T05:28:23.718Z,7.90
2023-04-27T05:30:50.544Z,7.90
2023-04-27T05:33:17.317Z,8.00
2023-04-27T05:35:44.164Z,8.10
2023-04-27T05:38:11.010Z,8.20
2023-04-27T05:40:37.828Z,8.20
2023-04-27T05:43:05.610Z,8.40
2023-04-27T05:45:32.750Z,8.40
2023-04-27T05:47:59.629Z,8.40
2023-04-27T05:50:26.516Z,8.50
2023-04-27T05:52:53.273Z,8.50
2023-04-27T05:55:20.220Z,8.60
2023-04-27T05:57:51.702Z,8.70
2023-04-27T06:00:24.962Z,8.70
2023-04-27T06:02:51.841Z,8.80
2023-04-27T06:05:18.869Z,8.80
2023-04-27T06:07:45.764Z,9.10
2023-04-27T06:10:13.173Z,9.10
2023-04-27T06:12:40.000Z,9.40
2023-04-27T06:15:10.671Z,9.30
2023-04-27T06:17:38.935Z,9.40
2023-04-27T06:20:07.379Z,9.50
2023-04-27T06:22:34.726Z,9.50
2023-04-27T06:25:01.540Z,9.60
2023-04-27T06:27:28.379Z,9.60
2023-04-27T06:29:55.295Z,9.50
2023-04-27T06:32:22.099Z,9.50
2023-04-27T06:34:50.157Z,9.50
2023-04-27T06:37:17.320Z,9.60
2023-04-27T06:39:44.812Z,9.70
2023-04-27T06:42:12.017Z,9.90
2023-04-27T06:44:39.296Z,10.00
2023-04-27T06:47:06.507Z,10.20
2023-04-27T06:49:33.361Z,10.60
2023-04-27T06:52:03.384Z,10.50
2023-04-27T06:54:30.307Z,10.60
2023-04-27T06:56:57.082Z,10.70
2023-04-27T06:59:23.903Z,10.80
2023-04-27T07:01:51.693Z,10.90
2023-04-27T07:04:18.733Z,11.00
2023-04-27T07:06:45.898Z,11.20
2023-04-27T07:09:24.004Z,11.30
2023-04-27T07:11:53.781Z,11.40
2023-04-27T07:14:20.917Z,11.50
2023-04-27T07:16:47.806Z,11.50
2023-04-27T07:19:14.847Z,11.60
2023-04-27T07:21:41.886Z,11.60
2023-04-27T07:24:08.906Z,11.60
2023-04-27T07:26:36.500Z,11.60
2023-04-27T07:29:11.204Z,11.50
2023-04-27T07:31:46.453Z,11.60
2023-04-27T07:34:13.417Z,11.70
2023-04-27T07:36:40.261Z,11.80
2023-04-27T07:39:08.066Z,12.00
2023-04-27T07:41:35.583Z,12.10
2023-04-27T07:44:02.621Z,12.10
2023-04-27T07:46:31.700Z,12.10
2023-04-27T07:49:00.349Z,12.20
2023-04-27T07:51:28.756Z,12.20
2023-04-27T07:53:56.302Z,12.20
2023-04-27T07:56:23.191Z,12.30
2023-04-27T07:58:49.978Z,12.20
2023-04-27T08:01:18.511Z,12.20
2023-04-27T08:03:47.386Z,12.30
2023-04-27T08:06:15.033Z,12.30
2023-04-27T08:08:42.181Z,12.30
2023-04-27T08:11:13.042Z,12.40
2023-04-27T08:13:39.892Z,12.50
2023-04-27T08:16:07.197Z,12.60
2023-04-27T08:18:34.509Z,12.70
2023-04-27T08:21:01.470Z,12.70
2023-04-27T08:23:29.434Z,12.80
2023-04-27T08:25:56.508Z,13.00
2023-04-27T08:28:23.483Z,13.10
2023-04-27T08:30:50.642Z,13.20
2023-04-27T08:33:17.436Z,13.20
2023-04-27T08:35:44.216Z,13.20
2023-04-27T08:38:11.280Z,13.30
2023-04-27T08:40:43.746Z,13.30
2023-04-27T08:43:10.700Z,13.40
2023-04-27T08:45:37.950Z,13.40
2023-04-27T08:48:05.169Z,13.50
2023-04-27T08:50:32.511Z,13.50
2023-04-27T08:52:59.830Z,13.60
2023-04-27T08:55:26.799Z,13.70
2023-04-27T08:58:01.302Z,13.70
2023-04-27T09:00:42.749Z,13.80
2023-04-27T09:03:24.114Z,13.80
2023-04-27T09:06:03.735Z,13.90
2023-04-27T09:09:02.965Z,13.90
2023-04-27T09:11:36.319Z,13.90
2023-04-27T09:14:19.208Z,13.90
2023-04-27T09:16:57.357Z,13.80
2023-04-27T09:19:29.420Z,14.00
2023-04-27T09:22:08.662Z,14.10
2023-04-27T09:24:35.846Z,14.20
2023-04-27T09:27:03.604Z,14.30
2023-04-27T09:29:38.096Z,14.40
2023-04-27T09:32:20.510Z,14.70
2023-04-27T09:34:47.339Z,15.00
2023-04-27T09:37:15.589Z,15.00
2023-04-27T09:39:43.279Z,14.80
2023-04-27T09:42:12.333Z,14.80
2023-04-27T09:44:39.160Z,14.70
2023-04-27T09:47:07.418Z,14.70
2023-04-27T09:49:35.903Z,14.80
2023-04-27T09:52:02.798Z,14.80
2023-04-27T09:54:34.114Z,14.80
2023-04-27T09:57:38.015Z,14.80
2023-04-27T10:00:40.999Z,14.80
2023-04-27T10:03:28.454Z,14.60
2023-04-27T10:06:48.062Z,14.20
2023-04-27T10:09:17.340Z,13.90
2023-04-27T10:11:44.606Z,13.80
2023-04-27T10:14:18.491Z,13.70
2023-04-27T10:16:55.097Z,13.70
2023-04-27T10:19:23.762Z,13.80
2023-04-27T10:22:07.878Z,14.00
2023-04-27T10:24:40.709Z,14.00
2023-04-27T10:27:16.021Z,14.10
2023-04-27T10:29:46.111Z,14.10
2023-04-27T10:32:19.081Z,14.00
2023-04-27T10:34:47.637Z,14.00
2023-04-27T10:37:15.582Z,14.00
2023-04-27T10:39:49.418Z,14.00
2023-04-27T10:42:30.841Z,14.00
2023-04-27T10:44:59.046Z,14.20
2023-04-27T10:47:39.115Z,14.30
2023-04-27T10:50:14.319Z,14.30
2023-04-27T10:52:46.571Z,14.20
2023-04-27T10:55:16.879Z,14.30
2023-04-27T10:57:53.275Z,14.30
2023-04-27T11:00:45.051Z,14.40
2023-04-27T11:03:20.545Z,14.50
2023-04-27T11:05:49.363Z,14.50
2023-04-27T11:08:19.623Z,14.50
2023-04-27T11:10:50.304Z,14.40
2023-04-27T11:13:24.078Z,14.50
2023-04-27T11:15:57.772Z,14.60
2023-04-27T11:18:31.893Z,14.60
2023-04-27T11:21:23.595Z,14.70
2023-04-27T11:23:50.375Z,14.80
2023-04-27T11:26:23.745Z,15.10
2023-04-27T11:29:05.282Z,15.20
2023-04-27T11:31:49.216Z,15.20
2023-04-27T11:34:26.458Z,15.20
2023-04-27T11:39:38.998Z,15.60
2023-04-27T11:42:19.705Z,15.90
2023-04-27T11:45:07.994Z,16.00
2023-04-27T11:47:36.008Z,16.10
2023-04-27T11:50:07.857Z,16.10
2023-04-27T11:52:37.285Z,16.00
2023-04-27T11:55:05.412Z,15.90
2023-04-27T11:57:36.478Z,16.00
2023-04-27T12:00:12.112Z,16.00
2023-04-27T12:02:39.111Z,16.00
2023-04-27T12:05:07.729Z,15.80
2023-04-27T12:07:35.493Z,15.80
2023-04-27T12:10:02.385Z,16.00
2023-04-27T12:12:29.384Z,16.20
2023-04-27T12:14:56.282Z,16.30
2023-04-27T12:17:23.280Z,16.40
2023-04-27T12:19:50.230Z,16.40
2023-04-27T12:22:17.266Z,16.30
2023-04-27T12:24:44.215Z,16.30
2023-04-27T12:27:11.059Z,16.30
2023-04-27T12:29:38.096Z,16.20
2023-04-27T12:32:05.994Z,16.20
2023-04-27T12:34:33.195Z,16.10
2023-04-27T12:37:00.068Z,16.10
2023-04-27T12:39:26.966Z,16.20
2023-04-27T12:41:54.265Z,16.30
2023-04-27T12:44:22.049Z,16.40
2023-04-27T12:46:49.450Z,16.60
2023-04-27T12:49:17.250Z,16.60
2023-04-27T12:51:45.683Z,16.70
2023-04-27T12:54:12.977Z,16.70
2023-04-27T12:56:40.169Z,16.70
2023-04-27T12:59:07.078Z,16.60
2023-04-27T13:01:34.037Z,16.50
2023-04-27T13:04:03.770Z,16.50
2023-04-27T13:06:31.906Z,16.30
2023-04-27T13:08:59.859Z,16.20
2023-04-27T13:11:27.220Z,16.20
2023-04-27T13:13:55.077Z,16.20
2023-04-27T13:16:25.195Z,16.10
2023-04-27T13:18:53.419Z,16.00
2023-04-27T13:21:20.953Z,16.10
2023-04-27T13:23:48.106Z,16.10
2023-04-27T13:26:16.374Z,16.20
2023-04-27T13:28:43.453Z,16.10
2023-04-27T13:31:11.077Z,16.10
2023-04-27T13:33:43.805Z,16.10
2023-04-27T13:36:13.016Z,16.00
2023-04-27T13:38:40.730Z,16.10
2023-04-27T13:41:08.288Z,16.10
2023-04-27T13:43:35.643Z,16.00
2023-04-27T13:46:03.325Z,16.00
2023-04-27T13:48:30.889Z,15.90
2023-04-27T13:50:58.405Z,15.90
2023-04-27T13:53:26.622Z,15.90
2023-04-27T13:55:58.377Z,15.90
2023-04-27T13:58:28.963Z,15.90
2023-04-27T14:00:55.933Z,15.80
2023-04-27T14:03:23.226Z,15.90
2023-04-27T14:05:51.385Z,16.00
2023-04-27T14:08:19.063Z,16.00
2023-04-27T14:10:46.469Z,16.00
2023-04-27T14:13:13.587Z,15.90
2023-04-27T14:15:41.484Z,16.00
2023-04-27T14:18:09.346Z,16.10
2023-04-27T14:20:38.474Z,16.00
2023-04-27T14:23:06.907Z,16.00
2023-04-27T14:25:34.592Z,16.00
2023-04-27T14:28:04.220Z,16.10
2023-04-27T14:30:35.078Z,16.00
2023-04-27T14:33:02.741Z,16.10
2023-04-27T14:35:29.830Z,16.30
2023-04-27T14:38:01.894Z,16.50
2023-04-27T14:40:30.598Z,16.60
2023-04-27T14:42:58.510Z,16.70
2023-04-27T14:45:29.212Z,16.70
2023-04-27T14:47:58.051Z,16.70
2023-04-27T14:50:24.930Z,16.60
2023-04-27T14:52:51.800Z,16.40
2023-04-27T14:55:18.657Z,16.30
2023-04-27T14:57:45.483Z,16.20
2023-04-27T15:00:14.561Z,16.20
2023-04-27T15:02:41.434Z,16.10
2023-04-27T15:05:09.086Z,16.10
2023-04-27T15:07:36.151Z,16.00
2023-04-27T15:10:03.511Z,16.10
2023-04-27T15:12:30.360Z,16.10
2023-04-27T15:14:57.166Z,16.10
2023-04-27T15:17:24.126Z,16.10
2023-04-27T15:19:51.927Z,16.20
2023-04-27T15:22:18.724Z,16.20
2023-04-27T15:24:45.563Z,16.20
2023-04-27T15:27:13.302Z,16.10
2023-04-27T15:29:41.840Z,16.10
2023-04-27T15:32:08.677Z,15.90
2023-04-27T15:34:35.561Z,16.40
2023-04-27T15:37:03.551Z,15.90
2023-04-27T15:39:30.478Z,16.00
2023-04-27T15:41:59.516Z,16.00
2023-04-27T15:44:26.888Z,16.00
2023-04-27T15:46:53.908Z,16.10
2023-04-27T15:49:21.003Z,16.20
2023-04-27T15:51:47.843Z,16.20
2023-04-27T15:54:14.737Z,16.20
2023-04-27T15:56:41.602Z,16.20
2023-04-27T15:59:08.666Z,16.40
2023-04-27T16:01:35.662Z,16.50
2023-04-27T16:04:02.661Z,16.50
2023-04-27T16:06:36.867Z,16.50
2023-04-27T16:09:04.329Z,16.40
2023-04-27T16:11:31.507Z,16.30
2023-04-27T16:13:58.534Z,16.20
2023-04-27T16:16:25.482Z,16.10
2023-04-27T16:18:52.445Z,16.10
2023-04-27T16:21:19.234Z,16.00
2023-04-27T16:23:46.096Z,16.00
2023-04-27T16:26:12.897Z,16.00
2023-04-27T16:28:39.700Z,15.90
2023-04-27T16:31:06.875Z,15.80
2023-04-27T16:33:33.817Z,15.80
2023-04-27T16:36:00.666Z,15.80
2023-04-27T16:38:28.541Z,15.90
2023-04-27T16:40:56.181Z,15.90
2023-04-27T16:43:23.093Z,15.80
2023-04-27T16:45:50.069Z,15.70
2023-04-27T16:48:17.538Z,15.60
2023-04-27T16:50:44.349Z,15.60
2023-04-27T16:53:19.522Z,15.60
2023-04-27T16:55:46.753Z,15.50
2023-04-27T16:58:13.715Z,15.60
2023-04-27T17:00:40.815Z,15.60
2023-04-27T17:03:07.768Z,15.50
2023-04-27T17:05:34.611Z,15.50
2023-04-27T17:08:03.622Z,15.40
2023-04-27T17:10:32.259Z,15.40
2023-04-27T17:12:59.420Z,15.40
2023-04-27T17:15:28.466Z,15.40
2023-04-27T17:17:55.475Z,15.40
2023-04-27T17:20:22.539Z,15.40
2023-04-27T17:22:49.495Z,15.30
2023-04-27T17:25:16.907Z,15.30
2023-04-27T17:27:43.723Z,15.30
2023-04-27T17:30:10.991Z,15.30
2023-04-27T17:32:37.954Z,15.30
2023-04-27T17:35:05.553Z,15.20
2023-04-27T17:37:32.564Z,15.20
2023-04-27T17:39:59.546Z,15.10
2023-04-27T17:42:26.366Z,15.00
2023-04-27T17:44:53.239Z,15.00
2023-04-27T17:47:22.170Z,15.00
2023-04-27T17:49:49.553Z,14.80
2023-04-27T17:52:16.397Z,14.80
2023-04-27T17:54:43.375Z,14.80
2023-04-27T17:57:10.338Z,14.70
2023-04-27T17:59:37.236Z,14.70
2023-04-27T18:02:04.090Z,14.60
2023-04-27T18:04:31.188Z,14.50
2023-04-27T18:06:58.203Z,14.50
2023-04-27T18:09:26.274Z,14.40
2023-04-27T18:11:53.071Z,14.30
2023-04-27T18:14:19.867Z,14.10
2023-04-27T18:16:46.795Z,14.00
2023-04-27T18:19:13.815Z,13.90
2023-04-27T18:21:40.946Z,13.80
2023-04-27T18:24:08.564Z,13.70
2023-04-27T18:26:36.672Z,13.60
2023-04-27T18:29:03.835Z,13.50
2023-04-27T18:31:30.712Z,13.50
2023-04-27T18:33:57.632Z,13.40
2023-04-27T18:36:27.388Z,13.30
2023-04-27T18:38:55.322Z,13.20
2023-04-27T18:41:22.179Z,13.10
2023-04-27T18:43:49.008Z,13.00
2023-04-27T18:46:15.923Z,12.90
2023-04-27T18:48:42.797Z,12.90
2023-04-27T18:51:09.641Z,12.80
2023-04-27T18:53:36.664Z,12.70
2023-04-27T18:56:03.827Z,12.70
2023-04-27T18:58:30.622Z,12.60
2023-04-27T19:00:57.443Z,12.50
2023-04-27T19:03:24.416Z,12.50
2023-04-27T19:05:52.626Z,12.50
2023-04-27T19:08:19.395Z,12.40
2023-04-27T19:10:46.215Z,12.40
2023-04-27T19:13:13.117Z,12.30
2023-04-27T19:15:40.016Z,12.30
2023-04-27T19:18:11.039Z,12.40
2023-04-27T19:20:39.580Z,12.40
2023-04-27T19:23:07.944Z,12.40
2023-04-27T19:25:35.300Z,12.40
2023-04-27T19:28:02.168Z,12.40
2023-04-27T19:30:29.444Z,12.40
2023-04-27T19:32:56.309Z,12.50
2023-04-27T19:35:23.926Z,12.50
2023-04-27T19:37:51.053Z,12.60
2023-04-27T19:40:18.260Z,12.60
2023-04-27T19:42:45.483Z,12.60
2023-04-27T19:45:12.545Z,12.60
2023-04-27T19:47:39.712Z,12.60
2023-04-27T19:50:07.367Z,12.50
2023-04-27T19:52:34.267Z,12.50
2023-04-27T19:55:01.123Z,12.40
2023-04-27T19:57:27.992Z,12.40
2023-04-27T19:59:54.896Z,12.40
2023-04-27T20:02:21.875Z,12.30
2023-04-27T20:04:49.062Z,12.30
2023-04-27T20:07:16.165Z,12.30
2023-04-27T20:09:43.124Z,12.20
2023-04-27T20:12:23.679Z,12.20
2023-04-27T20:14:56.712Z,12.20
2023-04-27T20:17:26.172Z,12.10
2023-04-27T20:19:56.516Z,12.20
2023-04-27T20:22:24.065Z,12.20
2023-04-27T20:24:51.234Z,12.20
2023-04-27T20:27:18.472Z,12.30
2023-04-27T20:29:47.160Z,12.20
2023-04-27T20:32:14.114Z,12.20
2023-04-27T20:34:41.009Z,12.30
2023-04-27T20:37:07.930Z,12.30
2023-04-27T20:39:35.044Z,12.30
2023-04-27T20:42:01.895Z,12.30
2023-04-27T20:44:28.779Z,12.30
2023-04-27T20:46:55.875Z,12.30
2023-04-27T20:49:32.142Z,12.30
2023-04-27T20:52:02.163Z,12.30
2023-04-27T20:54:31.373Z,12.30
2023-04-27T20:57:00.594Z,12.30
2023-04-27T20:59:27.537Z,12.30
2023-04-27T21:01:54.339Z,12.40
2023-04-27T21:04:21.395Z,12.40
2023-04-27T21:06:48.400Z,12.40
2023-04-27T21:09:15.164Z,12.40
2023-04-27T21:11:41.952Z,12.40
2023-04-27T21:14:08.748Z,12.40
2023-04-27T21:16:35.633Z,12.40
2023-04-27T21:19:02.457Z,12.40
2023-04-27T21:21:29.266Z,12.40
2023-04-27T21:24:06.662Z,13.10
2023-04-27T21:26:34.642Z,12.40
2023-04-27T21:29:01.583Z,12.40
2023-04-27T21:31:28.518Z,12.40
2023-04-27T21:33:55.438Z,12.40
2023-04-27T21:36:22.257Z,12.40
2023-04-27T21:38:49.249Z,12.40
2023-04-27T21:41:17.351Z,12.40
2023-04-27T21:43:44.992Z,12.40
2023-04-27T21:46:11.942Z,12.30
2023-04-27T21:48:38.846Z,12.30
2023-04-27T21:51:05.763Z,12.30
2023-04-27T21:53:32.747Z,12.30
2023-04-27T21:56:00.547Z,12.30
2023-04-27T21:58:27.808Z,12.20
2023-04-27T22:00:55.260Z,12.20
2023-04-27T22:03:22.887Z,12.20
2023-04-27T22:05:50.260Z,12.10
2023-04-27T22:08:19.661Z,12.10
2023-04-27T22:10:47.204Z,12.10
2023-04-27T22:15:44.199Z,12.00
2023-04-27T22:18:11.016Z,12.10
2023-04-27T22:20:38.419Z,12.10
2023-04-27T22:23:05.228Z,12.10
2023-04-27T22:25:34.005Z,12.10
2023-04-27T22:28:01.615Z,12.10
2023-04-27T22:30:29.298Z,12.10
2023-04-27T22:32:56.711Z,12.10
2023-04-27T22:35:27.077Z,12.10
2023-04-27T22:37:59.965Z,12.10
2023-04-27T22:40:26.982Z,12.10
2023-04-27T22:42:55.082Z,12.10
2023-04-27T22:45:23.407Z,12.10
2023-04-27T22:47:50.860Z,12.10
2023-04-27T22:50:18.009Z,12.20
2023-04-27T22:52:45.156Z,12.20
2023-04-27T22:55:13.290Z,12.30
2023-04-27T22:57:41.423Z,12.30
2023-04-27T23:00:11.329Z,12.30
2023-04-27T23:02:39.738Z,12.30
2023-04-27T23:05:07.586Z,12.30
2023-04-27T23:07:35.015Z,12.40
2023-04-27T23:10:03.107Z,12.40
2023-04-27T23:12:31.301Z,12.40
2023-04-27T23:14:59.350Z,12.40
2023-04-27T23:17:30.489Z,12.40
2023-04-27T23:19:59.358Z,12.40
2023-04-27T23:22:27.631Z,12.40
2023-04-27T23:24:54.612Z,12.40
2023-04-27T23:27:22.519Z,12.40
2023-04-27T23:29:49.356Z,12.40
2023-04-27T23:32:16.805Z,12.40
2023-04-27T23:34:43.758Z,12.40
2023-04-27T23:37:10.614Z,12.40
2023-04-27T23:39:37.448Z,12.40
2023-04-27T23:42:04.509Z,12.40
2023-04-27T23:44:31.343Z,12.40
2023-04-27T23:46:58.370Z,12.50
2023-04-27T23:49:25.253Z,12.40
2023-04-27T23:51:52.874Z,12.40
2023-04-27T23:54:19.750Z,12.40
2023-04-27T23:56:47.106Z,12.30
2023-04-27T23:59:15.032Z,12.30
